Time;durP1;ratioP1;P1;durP2;ratioP2;P2;SDS_P1;SDS_P2;PMS_P1;PMS_P2;Temp;Humidity;BMP_temperature;BMP_pressure;BME280_temperature;BME280_humidity;BME280_pressure;Samples;Min_cycle;Max_cycle;Signal;HPM_P1;HPM_P2
2021/12/23 06:55:33;;;;;;;39.53;16.10;;;;;;;-3.50;79.07;98189.50;5336036;23;20051;-49
2021/12/23 06:57:58;;;;;;;38.33;17.58;;;;;;;-3.50;78.92;98192.06;4971906;28;20039;-50
2021/12/23 07:00:26;;;;;;;44.05;17.58;;;;;;;-3.62;79.07;98185.34;4965183;28;20038;-51
2021/12/23 07:02:52;;;;;;;41.20;15.73;;;;;;;-3.52;79.42;98183.53;4969765;28;20073;-51
2021/12/23 07:05:18;;;;;;;42.85;17.52;;;;;;;-3.80;80.34;98186.41;4969477;28;20027;-53
2021/12/23 07:07:58;;;;;;;45.30;18.00;;;;;;;-3.48;78.94;98186.00;4969419;28;20109;-50
2021/12/23 07:10:28;;;;;;;38.40;15.90;;;;;;;-3.32;78.70;98181.53;4972883;28;20035;-51
2021/12/23 07:12:54;;;;;;;37.72;14.70;;;;;;;-3.27;78.66;98182.34;4964204;28;20027;-52
2021/12/23 07:15:19;;;;;;;39.45;16.20;;;;;;;-3.43;78.62;98185.97;4978051;28;20027;-51
2021/12/23 07:17:45;;;;;;;42.08;16.75;;;;;;;-3.35;78.65;98189.28;4964919;28;20034;-52
2021/12/23 07:20:10;;;;;;;41.58;16.88;;;;;;;-3.38;79.00;98191.88;4973116;28;20402;-49
2021/12/23 07:22:36;;;;;;;38.20;15.80;;;;;;;-3.32;78.31;98191.81;4968463;28;20046;-50
2021/12/23 07:25:02;;;;;;;39.38;15.82;;;;;;;-3.27;77.82;98195.16;4961103;28;20023;-50
2021/12/23 07:27:27;;;;;;;47.05;17.05;;;;;;;-3.26;77.77;98204.56;4967871;28;20022;-51
2021/12/23 07:29:53;;;;;;;51.08;18.55;;;;;;;-3.18;77.99;98207.84;4972534;28;20034;-49
2021/12/23 07:32:18;;;;;;;41.33;16.45;;;;;;;-3.38;78.32;98202.13;4971783;28;20030;-51
2021/12/23 07:34:43;;;;;;;41.67;16.77;;;;;;;-3.36;78.39;98191.00;4973132;28;20035;-49
2021/12/23 07:37:09;;;;;;;44.15;18.33;;;;;;;-3.22;78.38;98197.66;4970890;28;20015;-53
2021/12/23 07:39:36;;;;;;;46.13;17.80;;;;;;;-3.14;77.97;98186.41;4956154;28;20039;-52
2021/12/23 07:42:02;;;;;;;50.97;17.42;;;;;;;-3.14;77.65;98177.88;4954037;28;20027;-51
2021/12/23 07:44:27;;;;;;;45.17;17.52;;;;;;;-3.30;78.59;98174.69;4967177;28;20073;-51
2021/12/23 07:46:53;;;;;;;48.42;18.25;;;;;;;-3.31;78.21;98170.41;4966757;28;20089;-52
2021/12/23 07:49:18;;;;;;;50.20;17.13;;;;;;;-3.44;78.94;98167.19;4962497;28;20030;-49
2021/12/23 07:51:44;;;;;;;47.20;18.85;;;;;;;-3.24;78.59;98164.31;4967952;28;20043;-52
2021/12/23 07:54:09;;;;;;;44.95;16.85;;;;;;;-3.22;78.78;98165.16;4952173;28;20030;-50
2021/12/23 07:56:34;;;;;;;43.53;17.85;;;;;;;-3.42;79.40;98154.31;4957372;28;20035;-53
2021/12/23 07:59:00;;;;;;;46.55;18.27;;;;;;;-3.21;78.62;98164.28;4972780;28;20441;-51
2021/12/23 08:01:25;;;;;;;44.50;15.98;;;;;;;-3.29;78.42;98157.56;4966397;28;20023;-53
2021/12/23 08:03:50;;;;;;;49.33;17.95;;;;;;;-3.37;79.13;98157.69;4955066;28;20549;-50
2021/12/23 08:06:16;;;;;;;46.03;18.05;;;;;;;-3.21;79.07;98169.41;4954595;28;20034;-49
2021/12/23 08:08:41;;;;;;;43.75;17.05;;;;;;;-3.31;78.33;98170.41;4966554;28;20038;-51
2021/12/23 08:11:07;;;;;;;46.15;16.42;;;;;;;-3.12;78.30;98164.16;4953466;28;20030;-52
2021/12/23 08:13:33;;;;;;;46.08;16.98;;;;;;;-3.18;78.11;98153.13;4960989;28;20026;-50
2021/12/23 08:16:00;;;;;;;48.20;17.80;;;;;;;-3.24;78.29;98166.03;4972848;28;20023;-54
2021/12/23 08:18:26;;;;;;;41.05;16.40;;;;;;;-3.02;77.53;98164.03;4961850;28;20399;-52
2021/12/23 08:20:51;;;;;;;46.17;17.45;;;;;;;-3.15;77.64;98138.53;4953528;28;20560;-51
2021/12/23 08:23:17;;;;;;;38.80;16.50;;;;;;;-3.16;77.30;98129.16;4953442;28;20553;-49
2021/12/23 08:25:42;;;;;;;43.97;17.30;;;;;;;-3.12;77.23;98123.09;4953301;28;20034;-51
2021/12/23 08:28:09;;;;;;;45.55;17.90;;;;;;;-2.94;77.31;98110.84;4965524;28;20027;-53
2021/12/23 08:30:35;;;;;;;42.13;16.20;;;;;;;-2.99;77.02;98107.53;4953986;28;20035;-49
2021/12/23 08:33:00;;;;;;;43.60;17.70;;;;;;;-2.97;76.70;98101.47;4972030;28;20538;-50
2021/12/23 08:35:25;;;;;;;42.28;16.65;;;;;;;-2.77;75.69;98116.56;4976161;28;20042;-53
2021/12/23 08:37:51;;;;;;;41.75;16.77;;;;;;;-3.03;75.88;98131.53;4973633;28;20018;-52
2021/12/23 08:40:19;;;;;;;40.08;16.60;;;;;;;-3.14;76.09;98135.09;4966489;28;20027;-52
2021/12/23 08:42:44;;;;;;;42.10;16.95;;;;;;;-3.11;76.22;98117.09;4956065;28;20023;-52
2021/12/23 08:45:10;;;;;;;38.05;14.77;;;;;;;-2.87;75.23;98115.84;4956623;28;20090;-51
2021/12/23 08:47:35;;;;;;;36.53;15.95;;;;;;;-2.95;75.84;98114.31;4968399;28;20031;-51
2021/12/23 08:50:01;;;;;;;45.13;15.98;;;;;;;-2.61;74.90;98103.47;4975839;28;20034;-52
2021/12/23 08:52:27;;;;;;;40.63;16.20;;;;;;;-2.61;74.65;98106.88;4965266;28;20413;-54
2021/12/23 08:54:53;;;;;;;44.45;16.77;;;;;;;-2.39;74.36;98099.63;4975663;28;20042;-49
2021/12/23 08:57:18;;;;;;;42.05;16.88;;;;;;;-2.67;74.84;98105.25;4963819;28;20475;-51
2021/12/23 08:59:43;;;;;;;47.60;17.80;;;;;;;-2.59;74.46;98114.56;4973372;28;20030;-52
2021/12/23 09:02:09;;;;;;;42.45;17.80;;;;;;;-2.58;75.40;98121.38;4967296;28;20027;-50
2021/12/23 09:04:35;;;;;;;45.03;18.05;;;;;;;-2.34;74.44;98117.50;4974306;28;20037;-52
2021/12/23 09:07:00;;;;;;;35.30;15.05;;;;;;;-2.26;74.31;98120.81;4975501;28;20030;-52
2021/12/23 09:09:26;;;;;;;40.03;16.27;;;;;;;-2.29;74.14;98113.16;4967219;28;20118;-54
2021/12/23 09:11:51;;;;;;;42.10;16.85;;;;;;;-2.19;74.38;98120.66;4975457;28;20026;-50
2021/12/23 09:14:17;;;;;;;42.70;16.50;;;;;;;-2.11;73.85;98115.38;4961529;28;20506;-50
2021/12/23 09:16:42;;;;;;;42.72;17.95;;;;;;;-2.23;74.09;98116.47;4956398;28;20039;-53
2021/12/23 09:19:09;;;;;;;40.97;16.45;;;;;;;-2.04;73.81;98119.50;4968682;28;20049;-50
2021/12/23 09:21:35;;;;;;;39.20;15.77;;;;;;;-2.00;73.90;98112.59;4973116;28;20027;-51
2021/12/23 09:24:02;;;;;;;49.40;18.33;;;;;;;-1.70;72.89;98105.97;4972858;28;20030;-50
2021/12/23 09:26:29;;;;;;;50.55;18.83;;;;;;;-1.58;72.12;98107.44;4956374;28;20023;-49
2021/12/23 09:29:13;;;;;;;46.47;18.45;;;;;;;-1.88;73.77;98107.22;4966709;28;20034;-52
2021/12/23 09:34:23;;;;;;;40.65;16.23;;;;;;;-1.57;72.59;98101.44;4954686;28;20031;-50
2021/12/23 09:36:48;;;;;;;42.47;16.52;;;;;;;-1.69;73.44;98095.69;4961480;28;20402;-53
2021/12/23 09:39:14;;;;;;;42.40;16.90;;;;;;;-1.45;72.62;98090.84;4975119;28;20107;-51
2021/12/23 09:41:40;;;;;;;42.00;16.55;;;;;;;-1.50;73.21;98100.41;4958267;28;20031;-50
2021/12/23 09:44:08;;;;;;;47.42;17.88;;;;;;;-1.77;73.08;98104.41;4971721;28;20035;-54
2021/12/23 09:46:34;;;;;;;45.95;17.48;;;;;;;-1.70;73.44;98105.97;4955838;28;20471;-50
2021/12/23 09:49:00;;;;;;;43.88;17.25;;;;;;;-1.50;73.24;98098.69;4966647;28;20477;-53
2021/12/23 09:51:26;;;;;;;48.88;19.20;;;;;;;-1.46;73.13;98089.16;4974897;28;20031;-54
2021/12/23 09:53:57;;;;;;;50.00;19.02;;;;;;;-1.57;72.64;98080.84;4964029;28;20053;-53
2021/12/23 09:56:27;;;;;;;42.67;16.10;;;;;;;-1.32;72.72;98081.13;4955750;28;20038;-49
2021/12/23 09:58:52;;;;;;;47.67;17.83;;;;;;;-1.25;72.86;98070.66;4965202;28;20030;-51
2021/12/23 10:01:18;;;;;;;42.58;16.73;;;;;;;-1.39;73.08;98070.13;4967877;28;20093;-51
2021/12/23 10:03:43;;;;;;;41.15;17.10;;;;;;;-1.25;72.89;98049.22;4963872;28;20019;-53
2021/12/23 10:06:09;;;;;;;46.28;17.10;;;;;;;-1.14;72.41;98048.97;4967275;28;20106;-49
2021/12/23 10:08:34;;;;;;;45.65;17.17;;;;;;;-0.91;71.56;98056.97;4959823;28;20042;-54
2021/12/23 10:11:10;;;;;;;46.53;18.20;;;;;;;-0.96;71.00;98048.53;4973637;28;20022;-52
2021/12/23 10:30:35;;;;;;;44.92;18.95;;;;;;;-0.74;71.63;98041.94;4956083;28;20038;-52
2021/12/23 10:38:39;;;;;;;44.03;17.05;;;;;;;-0.69;72.00;98020.38;4922359;28;20036;-50
2021/12/23 10:41:08;;;;;;;42.13;16.90;;;;;;;-0.81;72.06;98021.56;4972263;28;20516;-50
2021/12/23 10:43:42;;;;;;;47.17;17.65;;;;;;;-0.59;72.24;98016.66;4972968;28;20065;-51
2021/12/23 10:46:11;;;;;;;46.50;17.52;;;;;;;-0.44;71.55;98011.13;4970270;28;20058;-51
2021/12/23 10:51:58;;;;;;;45.75;18.13;;;;;;;-0.34;71.31;98007.41;4970061;28;20027;-51
2021/12/23 10:58:00;;;;;;;46.17;17.33;;;;;;;-0.39;71.19;97986.06;4969052;28;20015;-51
2021/12/23 11:00:27;;;;;;;69.03;24.58;;;;;;;-0.34;71.61;97986.78;4957835;29;20041;-50
2021/12/23 11:06:14;;;;;;;46.20;18.98;;;;;;;-0.35;71.37;97981.66;4955442;28;20031;-52
2021/12/23 11:41:30;;;;;;;45.78;17.67;;;;;;;-0.18;71.73;97916.72;4973696;28;20031;-50
2021/12/23 11:44:00;;;;;;;40.72;16.90;;;;;;;-0.17;71.53;97913.25;4954665;28;20050;-52
2021/12/23 11:46:52;;;;;;;43.40;17.33;;;;;;;0.07;71.10;97920.25;4954956;28;20035;-49
2021/12/23 11:49:18;;;;;;;44.80;16.92;;;;;;;0.21;70.26;97918.09;4954460;28;20487;-50
2021/12/23 11:51:51;;;;;;;48.47;17.45;;;;;;;0.16;70.42;97917.38;4963933;28;20030;-50
2021/12/23 11:54:20;;;;;;;46.58;17.95;;;;;;;0.30;70.54;97905.78;4973258;28;20367;-52
2021/12/23 11:56:48;;;;;;;47.90;18.65;;;;;;;0.04;70.55;97894.56;4972654;28;20026;-50
2021/12/23 11:59:15;;;;;;;44.85;18.42;;;;;;;0.09;70.81;97897.00;4973557;28;20482;-50
2021/12/23 12:01:43;;;;;;;47.35;18.20;;;;;;;0.14;70.75;97897.72;4958525;28;20031;-50
2021/12/23 12:04:10;;;;;;;50.28;19.10;;;;;;;0.28;70.37;97894.69;4973193;28;20474;-50
2021/12/23 12:06:39;;;;;;;43.95;18.08;;;;;;;0.59;69.79;97903.09;4976979;28;20031;-51
2021/12/23 12:09:22;;;;;;;41.88;17.27;;;;;;;0.21;70.86;97889.72;4977665;28;20023;-50
2021/12/23 12:11:50;;;;;;;42.78;17.52;;;;;;;0.38;70.84;97872.81;4977262;28;20073;-51
2021/12/23 12:14:44;;;;;;;48.67;19.02;;;;;;;0.47;70.62;97878.53;4974549;28;20031;-51
2021/12/23 12:17:24;;;;;;;44.50;18.70;;;;;;;0.55;70.22;97886.03;4977240;28;20027;-51
2021/12/23 12:20:09;;;;;;;49.83;19.40;;;;;;;0.43;70.18;97882.09;4977236;28;20026;-51
2021/12/23 12:23:06;;;;;;;41.92;17.13;;;;;;;0.60;70.38;97871.22;4977104;28;20027;-50
2021/12/23 12:25:37;;;;;;;48.15;17.23;;;;;;;0.67;70.28;97874.44;4977316;28;20030;-49
2021/12/23 12:28:03;;;;;;;48.53;17.60;;;;;;;0.64;70.25;97867.63;4977180;28;20018;-49
2021/12/23 12:30:43;;;;;;;45.45;18.02;;;;;;;0.53;70.37;97871.50;4977134;28;20536;-49
2021/12/23 12:33:13;;;;;;;45.53;18.33;;;;;;;0.74;70.50;97867.34;4976708;28;20110;-51
2021/12/23 12:35:39;;;;;;;53.20;19.73;;;;;;;0.52;71.04;97865.50;4976772;28;20045;-51
2021/12/23 12:38:21;;;;;;;52.03;19.30;;;;;;;0.52;70.99;97852.59;4977053;28;20034;-52
2021/12/23 12:40:57;;;;;;;48.97;20.73;;;;;;;0.67;70.09;97852.06;4976919;28;20118;-50
2021/12/23 12:46:15;;;;;;;41.58;17.15;;;;;;;0.58;70.97;97846.34;4957476;28;20440;-50
2021/12/23 12:48:56;;;;;;;46.05;17.98;;;;;;;0.67;70.42;97859.78;4957412;28;20027;-49
2021/12/23 12:51:26;;;;;;;53.27;18.53;;;;;;;0.60;70.02;97858.31;4969171;28;20035;-51
2021/12/23 12:54:03;;;;;;;45.22;18.05;;;;;;;0.64;70.46;97859.91;4976297;28;20023;-48
2021/12/23 12:56:29;;;;;;;54.95;19.95;;;;;;;0.64;70.55;97859.06;4970222;28;20070;-49
2021/12/23 12:58:54;;;;;;;41.88;18.23;;;;;;;0.79;70.44;97847.34;4957473;28;20054;-48
2021/12/23 13:01:33;;;;;;;47.08;17.17;;;;;;;0.75;70.08;97838.03;4963523;28;20019;-49
2021/12/23 13:04:00;;;;;;;45.92;18.25;;;;;;;0.94;69.89;97845.09;4976103;28;20050;-52
2021/12/23 13:06:38;;;;;;;48.40;18.90;;;;;;;0.93;70.07;97846.00;4976503;28;20115;-49
2021/12/23 13:09:04;;;;;;;44.53;18.10;;;;;;;0.92;70.29;97836.53;4976094;28;20022;-49
2021/12/23 13:11:30;;;;;;;45.08;18.05;;;;;;;0.69;70.73;97837.38;4970174;28;20038;-50
2021/12/23 13:14:01;;;;;;;48.10;19.92;;;;;;;0.66;71.23;97832.31;4976109;28;20027;-51
2021/12/23 13:16:27;;;;;;;46.83;18.00;;;;;;;0.80;70.96;97831.00;4974356;28;20439;-52
2021/12/23 13:19:32;;;;;;;46.20;19.45;;;;;;;0.73;71.07;97827.78;4976270;28;20065;-49
2021/12/23 13:21:58;;;;;;;48.08;17.48;;;;;;;0.73;71.13;97829.53;4896919;29;20624;-53
2021/12/23 13:24:25;;;;;;;47.10;18.23;;;;;;;0.67;71.29;97820.25;4903871;29;20069;-49
2021/12/23 13:26:51;;;;;;;42.42;18.05;;;;;;;0.86;70.86;97808.38;4916782;29;20060;-48
2021/12/23 13:29:16;;;;;;;47.38;17.52;;;;;;;0.81;70.92;97819.75;4916085;29;20067;-50
2021/12/23 13:31:42;;;;;;;42.10;16.88;;;;;;;0.97;70.59;97818.31;4915366;29;20492;-49
2021/12/23 13:34:12;;;;;;;44.97;17.90;;;;;;;0.85;71.03;97816.16;4916123;29;20048;-52
2021/12/23 13:36:44;;;;;;;46.92;18.40;;;;;;;0.86;71.03;97807.50;4916741;29;20036;-49
2021/12/23 13:39:21;;;;;;;49.72;18.52;;;;;;;0.57;72.25;97806.81;4915981;29;20036;-48
2021/12/23 13:41:48;;;;;;;48.30;19.25;;;;;;;0.54;72.22;97799.16;4915503;29;20072;-54
2021/12/23 13:44:15;;;;;;;46.53;19.55;;;;;;;0.74;71.95;97802.81;4915894;29;20119;-52
2021/12/23 13:46:56;;;;;;;52.40;19.55;;;;;;;0.66;72.21;97801.34;4915848;29;20501;-49
2021/12/23 13:49:35;;;;;;;46.03;19.02;;;;;;;0.77;71.71;97797.53;4916191;29;20040;-50
2021/12/23 13:52:00;;;;;;;44.45;17.73;;;;;;;0.77;71.81;97792.38;4915160;29;20032;-49
2021/12/23 13:54:31;;;;;;;42.70;18.30;;;;;;;0.78;72.14;97794.03;4915357;29;20036;-50
2021/12/23 13:56:56;;;;;;;51.72;19.92;;;;;;;0.75;72.04;97794.16;4933657;28;20534;-51
2021/12/23 13:59:24;;;;;;;49.22;21.67;;;;;;;0.58;72.64;97798.16;4975265;28;20026;-51
2021/12/23 14:02:00;;;;;;;46.22;19.25;;;;;;;0.66;72.77;97793.59;4974113;28;20031;-51
2021/12/23 14:04:51;;;;;;;44.88;19.13;;;;;;;0.73;72.88;97791.63;4975168;28;20031;-49
2021/12/23 14:07:19;;;;;;;50.30;19.53;;;;;;;0.55;73.28;97785.38;4968842;28;20411;-48
2021/12/23 14:10:27;;;;;;;47.67;17.45;;;;;;;0.71;72.35;97783.94;4956437;28;20462;-53
2021/12/23 14:12:59;;;;;;;47.97;19.15;;;;;;;0.60;72.81;97778.31;4896735;29;20028;-49
2021/12/23 14:15:31;;;;;;;46.08;17.95;;;;;;;0.58;73.37;97776.69;4913545;29;20044;-48
2021/12/23 14:18:09;;;;;;;51.47;19.60;;;;;;;0.62;72.82;97775.66;4915645;29;20032;-51
2021/12/23 14:23:40;;;;;;;48.28;19.48;;;;;;;0.62;73.59;97779.13;4877378;29;20552;-53
2021/12/23 14:26:07;;;;;;;50.15;19.15;;;;;;;0.49;73.93;97762.38;4877638;29;20116;-53
2021/12/23 14:28:41;;;;;;;50.88;19.00;;;;;;;0.58;74.22;97772.34;4877681;29;20085;-48
2021/12/23 14:31:15;;;;;;;49.15;18.90;;;;;;;0.71;73.32;97773.59;4877598;29;20037;-52
2021/12/23 14:34:01;;;;;;;49.17;20.08;;;;;;;0.49;74.01;97764.94;4876629;29;20033;-51
2021/12/23 14:36:29;;;;;;;45.97;19.48;;;;;;;0.59;73.66;97776.63;4876472;29;20037;-49
2021/12/23 14:38:56;;;;;;;45.47;19.05;;;;;;;0.65;73.57;97776.44;4877337;29;20041;-52
2021/12/23 14:41:22;;;;;;;46.13;19.02;;;;;;;0.77;73.87;97774.28;4876631;29;20120;-50
2021/12/23 14:43:53;;;;;;;46.17;18.45;;;;;;;0.64;74.00;97771.31;4877420;29;20131;-48
2021/12/23 14:46:31;;;;;;;48.20;18.98;;;;;;;0.69;74.58;97769.41;4888704;29;20036;-50
2021/12/23 14:51:33;;;;;;;44.90;18.23;;;;;;;0.58;74.57;97762.03;4914691;29;20032;-53
2021/12/23 14:54:13;;;;;;;44.08;19.40;;;;;;;0.59;74.57;97753.41;4914397;29;20036;-49
2021/12/23 14:56:40;;;;;;;46.25;18.52;;;;;;;0.83;74.20;97751.69;4898578;29;20555;-49
2021/12/23 14:59:09;;;;;;;46.50;19.85;;;;;;;0.72;74.06;97758.94;4921199;29;20043;-51
2021/12/23 15:01:35;;;;;;;41.72;17.83;;;;;;;0.97;73.70;97753.75;4955131;28;20074;-48
2021/12/23 15:04:07;;;;;;;46.75;19.67;;;;;;;0.78;74.27;97742.41;4955014;28;20448;-49
2021/12/23 15:06:34;;;;;;;50.13;20.30;;;;;;;0.76;74.73;97739.03;4955065;28;20019;-53
2021/12/23 15:08:59;;;;;;;49.50;18.83;;;;;;;0.84;74.15;97742.19;4971988;28;20799;-53
2021/12/23 15:11:26;;;;;;;46.97;20.33;;;;;;;0.83;74.52;97735.34;4974129;28;20062;-53
2021/12/23 15:13:52;;;;;;;42.45;19.60;;;;;;;1.02;73.82;97730.31;4973912;28;20489;-53
2021/12/23 15:16:19;;;;;;;43.53;20.55;;;;;;;0.77;75.05;97727.81;4973323;28;20034;-51
2021/12/23 15:21:44;;;;;;;49.78;20.58;;;;;;;0.82;74.67;97718.16;4974024;28;20035;-50
2021/12/23 15:24:32;;;;;;;51.50;20.90;;;;;;;0.81;74.79;97722.47;4973928;28;20081;-53
2021/12/23 15:26:59;;;;;;;48.28;20.17;;;;;;;0.74;74.65;97710.69;4974046;28;20026;-48
2021/12/23 15:29:32;;;;;;;53.90;21.38;;;;;;;0.76;74.93;97697.72;4973516;28;20030;-50
2021/12/23 15:31:58;;;;;;;44.28;20.17;;;;;;;0.87;74.79;97696.44;4974302;28;20027;-50
2021/12/23 15:34:24;;;;;;;48.70;20.77;;;;;;;0.86;74.28;97699.06;4973498;28;20022;-53
2021/12/23 15:36:49;;;;;;;50.85;20.25;;;;;;;1.01;74.12;97693.34;4974285;28;20505;-49
2021/12/23 15:39:20;;;;;;;44.38;19.40;;;;;;;0.84;74.14;97696.56;4973703;28;20403;-52
2021/12/23 15:41:46;;;;;;;49.42;21.17;;;;;;;0.66;74.95;97685.19;4973923;28;20081;-50
2021/12/23 15:44:11;;;;;;;46.38;20.52;;;;;;;0.90;74.56;97672.25;4973612;28;20407;-53
2021/12/23 15:46:37;;;;;;;47.15;20.15;;;;;;;0.95;74.39;97670.31;4973331;28;20027;-50
2021/12/23 15:49:02;;;;;;;43.95;19.90;;;;;;;0.91;74.79;97666.19;4974182;28;20102;-51
2021/12/23 15:51:27;;;;;;;46.05;19.65;;;;;;;0.97;74.24;97663.38;4974068;28;20442;-52
2021/12/23 15:53:53;;;;;;;52.75;20.52;;;;;;;0.90;74.75;97660.19;4973567;28;20033;-51
2021/12/23 15:56:18;;;;;;;51.05;21.88;;;;;;;1.02;74.74;97652.84;4973676;28;20442;-48
2021/12/23 15:58:45;;;;;;;46.08;19.60;;;;;;;1.00;74.66;97650.34;4973576;28;20034;-51
2021/12/23 16:01:11;;;;;;;46.75;20.25;;;;;;;1.18;74.02;97659.09;4973668;28;20026;-51
2021/12/23 16:03:39;;;;;;;48.95;21.40;;;;;;;0.91;74.74;97648.09;4973440;28;20105;-53
2021/12/23 16:08:49;;;;;;;43.42;19.30;;;;;;;0.94;74.95;97635.06;4972696;28;20038;-49
2021/12/23 16:11:14;;;;;;;50.17;20.55;;;;;;;0.94;74.92;97640.25;4973769;28;20022;-52
2021/12/23 16:13:39;;;;;;;44.03;19.27;;;;;;;0.91;75.45;97640.34;4963579;28;20031;-52
2021/12/23 16:16:05;;;;;;;51.30;21.02;;;;;;;1.11;74.80;97630.09;4954334;28;20474;-51
2021/12/23 16:18:30;;;;;;;50.05;20.48;;;;;;;1.12;74.69;97629.19;4954317;29;20030;-49
2021/12/23 16:20:56;;;;;;;47.22;21.27;;;;;;;1.03;74.71;97632.13;4954378;28;20046;-52
2021/12/23 16:23:21;;;;;;;42.00;19.08;;;;;;;0.98;75.26;97625.47;4954286;29;20030;-54
2021/12/23 16:25:46;;;;;;;49.90;20.00;;;;;;;1.10;74.69;97617.22;4954341;28;20027;-53
2021/12/23 16:28:12;;;;;;;45.67;18.17;;;;;;;1.13;74.59;97610.19;4954227;28;20474;-49
2021/12/23 16:30:37;;;;;;;44.15;19.40;;;;;;;1.18;74.50;97613.44;4952465;29;20031;-52
2021/12/23 16:33:05;;;;;;;42.25;19.50;;;;;;;1.00;75.08;97619.34;4953986;29;20023;-52
2021/12/23 16:35:32;;;;;;;48.20;19.70;;;;;;;1.18;74.22;97610.84;4953993;28;20110;-49
2021/12/23 16:37:57;;;;;;;44.25;19.52;;;;;;;1.02;74.86;97602.03;4954337;28;20438;-50
2021/12/23 16:40:25;;;;;;;46.30;19.75;;;;;;;1.19;74.47;97603.94;4954343;29;20487;-52
2021/12/23 16:42:51;;;;;;;45.30;20.65;;;;;;;1.15;74.30;97604.97;4964038;28;20050;-53
2021/12/23 16:45:19;;;;;;;45.40;19.60;;;;;;;1.09;74.90;97608.63;4971415;28;20035;-51
2021/12/23 16:47:44;;;;;;;44.35;18.83;;;;;;;1.29;74.25;97600.09;4959217;28;20028;-49
2021/12/23 16:50:10;;;;;;;37.80;17.95;;;;;;;1.15;74.72;97607.56;4954191;29;20027;-50
2021/12/23 16:52:35;;;;;;;41.35;18.08;;;;;;;1.26;74.68;97599.38;4955780;28;20026;-49
2021/12/23 16:55:10;;;;;;;45.92;19.85;;;;;;;1.13;75.54;97594.69;4957058;28;20521;-50
2021/12/23 16:57:37;;;;;;;47.30;20.58;;;;;;;1.18;75.46;97592.78;4958970;28;20047;-50
2021/12/23 17:00:05;;;;;;;45.85;19.65;;;;;;;1.23;75.64;97589.16;4957654;29;20114;-50
2021/12/23 17:02:31;;;;;;;43.97;18.60;;;;;;;1.17;75.55;97585.94;4959348;28;20027;-49
2021/12/23 17:04:56;;;;;;;42.50;18.05;;;;;;;1.10;75.85;97584.50;4976249;28;20040;-51
2021/12/23 17:07:21;;;;;;;38.75;17.65;;;;;;;1.05;76.16;97562.34;4970773;28;20023;-49
2021/12/23 17:09:47;;;;;;;42.53;18.90;;;;;;;1.14;76.19;97560.22;4957088;28;20042;-53
2021/12/23 17:12:12;;;;;;;45.22;18.80;;;;;;;1.08;76.47;97557.88;4957348;28;20028;-51
2021/12/23 17:14:38;;;;;;;42.65;18.02;;;;;;;1.16;75.41;97542.91;4956419;28;20031;-51
2021/12/23 17:17:03;;;;;;;41.53;19.25;;;;;;;1.21;75.84;97534.16;4957418;28;20027;-48
2021/12/23 17:19:33;;;;;;;41.13;18.15;;;;;;;1.24;75.72;97536.56;4957632;28;20034;-53
2021/12/23 17:21:58;;;;;;;40.92;17.45;;;;;;;1.37;75.48;97519.66;4957178;29;20023;-52
2021/12/23 17:24:30;;;;;;;41.90;18.20;;;;;;;1.41;75.05;97510.88;4956270;28;20020;-50
2021/12/23 17:26:55;;;;;;;36.20;17.08;;;;;;;1.39;75.43;97507.53;4956671;28;20031;-49
2021/12/23 17:29:22;;;;;;;38.13;17.15;;;;;;;1.55;74.97;97505.97;4957274;28;20049;-52
2021/12/23 17:31:47;;;;;;;39.20;17.83;;;;;;;1.40;75.42;97499.69;4956707;28;20047;-50
2021/12/23 17:34:13;;;;;;;45.67;19.58;;;;;;;1.53;75.00;97507.75;4955043;28;20450;-49
2021/12/23 17:36:40;;;;;;;39.42;17.60;;;;;;;1.52;75.18;97498.34;4956659;29;20548;-51
2021/12/23 17:39:05;;;;;;;42.38;17.17;;;;;;;1.35;75.36;97500.81;4957433;28;20407;-49
2021/12/23 17:41:31;;;;;;;39.72;17.45;;;;;;;1.53;74.86;97499.19;4956333;29;20472;-49
2021/12/23 17:43:56;;;;;;;43.20;18.63;;;;;;;1.37;75.28;97489.47;4954859;28;20019;-53
2021/12/23 17:46:22;;;;;;;42.97;18.60;;;;;;;1.55;75.37;97497.34;4956354;29;20086;-51
2021/12/23 17:48:47;;;;;;;38.00;18.52;;;;;;;1.53;75.15;97504.34;4956091;29;20034;-49
2021/12/23 17:51:12;;;;;;;43.42;19.58;;;;;;;1.37;75.69;97498.97;4957310;28;20027;-52
2021/12/23 17:53:39;;;;;;;41.95;18.33;;;;;;;1.42;76.26;97489.31;4955692;28;20034;-51
2021/12/23 17:56:06;;;;;;;42.38;18.88;;;;;;;1.49;76.06;97498.47;4955812;28;20059;-49
2021/12/23 17:58:32;;;;;;;39.85;19.40;;;;;;;1.51;75.71;97486.31;4955920;28;20098;-53
2021/12/23 18:00:57;;;;;;;39.30;17.35;;;;;;;1.54;75.83;97499.09;4956813;28;20034;-51
2021/12/23 18:03:23;;;;;;;34.50;16.95;;;;;;;1.57;75.88;97505.88;4955396;28;20023;-54
2021/12/23 18:05:49;;;;;;;42.40;19.58;;;;;;;1.60;75.74;97501.41;4955812;28;20030;-49
2021/12/23 18:08:15;;;;;;;42.50;20.15;;;;;;;1.65;75.93;97502.06;4955911;29;20047;-49
2021/12/23 18:10:42;;;;;;;39.40;18.55;;;;;;;1.63;76.01;97501.28;4956896;28;20069;-50
2021/12/23 18:13:08;;;;;;;43.33;19.33;;;;;;;1.47;76.41;97491.69;4955424;28;20015;-50
2021/12/23 18:15:33;;;;;;;45.60;20.38;;;;;;;1.47;76.29;97497.69;4955579;28;20046;-51
2021/12/23 18:17:59;;;;;;;44.35;21.02;;;;;;;1.41;76.72;97500.53;4963587;28;20030;-51
2021/12/23 18:20:24;;;;;;;46.05;23.70;;;;;;;1.36;76.94;97487.81;4965377;28;20451;-50
2021/12/23 18:22:50;;;;;;;46.22;24.70;;;;;;;1.45;76.78;97491.75;4969972;28;20526;-49
2021/12/23 18:25:15;;;;;;;40.17;19.92;;;;;;;1.35;77.44;97485.31;4973614;28;20487;-51
2021/12/23 18:27:41;;;;;;;43.63;19.45;;;;;;;1.44;76.98;97490.06;4974504;28;20093;-50
2021/12/23 18:30:12;;;;;;;38.22;18.85;;;;;;;1.53;77.07;97484.50;4974003;28;20038;-50
2021/12/23 18:32:39;;;;;;;42.30;18.23;;;;;;;1.33;77.76;97480.19;4973829;28;20027;-49
2021/12/23 18:35:05;;;;;;;37.47;17.05;;;;;;;1.42;77.84;97476.38;4973979;28;20066;-50
2021/12/23 18:37:31;;;;;;;44.90;20.10;;;;;;;1.43;77.57;97475.47;4964378;28;20034;-50
2021/12/23 18:39:57;;;;;;;38.08;17.83;;;;;;;1.53;77.47;97468.16;4958892;28;20029;-53
2021/12/23 18:42:28;;;;;;;38.72;18.75;;;;;;;1.45;77.98;97465.91;4973725;28;20027;-51
2021/12/23 18:44:54;;;;;;;43.22;19.75;;;;;;;1.49;77.62;97467.47;4973080;28;20027;-51
2021/12/23 18:47:19;;;;;;;37.88;18.48;;;;;;;1.40;77.79;97463.50;4953173;28;20031;-50
2021/12/23 18:49:45;;;;;;;45.08;21.50;;;;;;;1.32;78.38;97465.59;4968565;28;20074;-51
2021/12/23 18:52:10;;;;;;;40.92;19.30;;;;;;;1.39;78.29;97466.19;4972975;28;20023;-51
2021/12/23 18:54:36;;;;;;;39.63;18.70;;;;;;;1.40;78.92;97462.69;4973013;28;20407;-53
2021/12/23 18:57:01;;;;;;;37.90;18.10;;;;;;;1.41;78.75;97462.63;4973944;28;20471;-50
2021/12/23 18:59:26;;;;;;;38.03;18.85;;;;;;;1.44;78.86;97453.88;4974212;28;20094;-52
2021/12/23 19:01:59;;;;;;;41.92;19.13;;;;;;;1.53;78.78;97444.91;4973926;28;20027;-50
2021/12/23 19:07:16;;;;;;;43.65;20.77;;;;;;;1.57;78.67;97447.28;4953097;29;20035;-49
2021/12/23 19:09:42;;;;;;;39.20;19.27;;;;;;;1.64;78.19;97430.56;4954946;28;20402;-51
2021/12/23 19:12:08;;;;;;;39.78;17.58;;;;;;;1.51;78.80;97428.59;4966592;28;20411;-50
2021/12/23 19:14:33;;;;;;;41.53;19.67;;;;;;;1.62;78.60;97436.75;4972799;28;20027;-49
2021/12/23 19:16:59;;;;;;;38.30;18.70;;;;;;;1.46;79.42;97440.91;4967403;28;20031;-50
2021/12/23 19:19:24;;;;;;;41.70;18.35;;;;;;;1.52;79.50;97438.06;4953980;28;20104;-49
2021/12/23 19:21:50;;;;;;;38.55;18.77;;;;;;;1.50;79.58;97435.53;4958708;28;20493;-50
2021/12/23 19:24:15;;;;;;;37.88;18.05;;;;;;;1.46;79.59;97434.00;4972727;28;20019;-48
2021/12/23 19:26:41;;;;;;;42.85;20.55;;;;;;;1.46;80.03;97431.41;4973228;28;20030;-49
2021/12/23 19:29:09;;;;;;;40.30;19.88;;;;;;;1.55;79.60;97430.16;4973695;28;20034;-48
2021/12/23 19:31:35;;;;;;;39.13;19.50;;;;;;;1.71;79.06;97425.13;4972867;28;20121;-49
2021/12/23 19:34:02;;;;;;;36.60;18.90;;;;;;;1.70;79.17;97418.31;4972008;28;20029;-49
2021/12/23 19:36:29;;;;;;;38.90;19.13;;;;;;;1.62;79.57;97422.06;4973647;28;20054;-49
2021/12/23 19:38:55;;;;;;;44.58;19.83;;;;;;;1.52;79.79;97410.47;4973152;28;20544;-49
2021/12/23 19:41:20;;;;;;;38.38;18.90;;;;;;;1.56;79.60;97411.16;4973035;28;20042;-49
2021/12/23 19:43:45;;;;;;;39.17;20.23;;;;;;;1.41;80.18;97423.00;4972056;28;20027;-48
2021/12/23 19:46:11;;;;;;;39.05;20.25;;;;;;;1.48;79.83;97410.66;4957937;28;20554;-52